Time;durP1;ratioP1;P1;durP2;ratioP2;P2;SDS_P1;SDS_P2;PMS_P1;PMS_P2;Temp;Humidity;BMP_temperature;BMP_pressure;BME280_temperature;BME280_humidity;BME280_pressure;Samples;Min_cycle;Max_cycle;Signal;HPM_P1;HPM_P2
2021/08/10 00:02:09;;;;;;;1075.67;881.87;;;;;;;14.98;87.12;101440.22;4975006;28;21553;-74
2021/08/10 00:04:35;;;;;;;1186.97;888.63;;;;;;;15.36;86.86;101488.06;4975109;28;20491;-73
2021/08/10 00:07:00;;;;;;;1094.80;846.43;;;;;;;15.14;87.79;101487.56;4967651;28;20189;-74
2021/08/10 00:09:26;;;;;;;1146.50;886.33;;;;;;;15.30;87.31;101484.38;4967430;28;20862;-73
2021/08/10 00:11:51;;;;;;;1089.87;891.00;;;;;;;15.20;87.10;101477.75;4976813;28;20721;-73
2021/08/10 00:14:17;;;;;;;1075.10;847.77;;;;;;;14.98;87.52;101447.50;4975664;28;20245;-73
2021/08/10 00:16:43;;;;;;;1151.57;910.20;;;;;;;15.07;87.85;101484.88;4979095;28;20182;-73
2021/08/10 00:19:08;;;;;;;1058.40;888.70;;;;;;;15.15;87.56;101490.03;4970816;28;20468;-73
2021/08/10 00:21:35;;;;;;;986.80;820.60;;;;;;;15.03;88.12;101480.94;4974909;28;20220;-74
2021/08/10 00:24:00;;;;;;;1021.90;817.80;;;;;;;15.04;87.98;101468.25;4981365;28;20651;-71
2021/08/10 00:26:26;;;;;;;987.17;813.93;;;;;;;15.06;88.29;101479.69;4979363;28;20452;-71
2021/08/10 00:28:51;;;;;;;1013.07;835.07;;;;;;;15.23;87.33;101486.25;4977455;28;20214;-70
2021/08/10 00:31:17;;;;;;;1018.70;840.03;;;;;;;14.89;87.56;101442.31;4974179;28;20190;-70
2021/08/10 00:33:42;;;;;;;967.90;842.53;;;;;;;15.07;88.03;101482.19;4979374;28;20209;-71
2021/08/10 00:36:10;;;;;;;1127.97;876.67;;;;;;;14.99;87.89;101459.97;4975764;28;20570;-71
2021/08/10 00:38:36;;;;;;;963.03;830.67;;;;;;;14.78;88.33;101455.66;4978999;28;20214;-72
2021/08/10 00:41:02;;;;;;;1059.50;868.77;;;;;;;14.90;88.79;101478.28;4973295;28;20496;-72
2021/08/10 00:43:34;;;;;;;1052.43;866.90;;;;;;;14.98;88.47;101480.72;4975873;28;20198;-72
2021/08/10 00:46:01;;;;;;;1016.13;808.10;;;;;;;15.01;88.29;101463.25;4975096;28;20449;-72
2021/08/10 00:48:27;;;;;;;1104.53;873.23;;;;;;;15.09;88.43;101482.78;4974206;28;20465;-72
2021/08/10 00:50:52;;;;;;;1131.47;862.40;;;;;;;14.78;88.45;101443.00;4978776;28;20440;-72
2021/08/10 00:53:17;;;;;;;1171.90;930.23;;;;;;;14.69;89.00;101437.00;4975626;28;20198;-72
2021/08/10 00:55:43;;;;;;;1049.23;868.87;;;;;;;14.88;88.78;101464.97;4973774;28;20248;-72
2021/08/10 00:58:10;;;;;;;1055.87;843.97;;;;;;;14.97;89.38;101480.97;4972137;28;20236;-72
2021/08/10 01:00:35;;;;;;;1078.57;901.63;;;;;;;14.68;89.42;101442.59;4975649;28;20658;-73
2021/08/10 01:03:00;;;;;;;1127.10;927.87;;;;;;;14.72;89.48;101454.63;4977182;28;20484;-72
2021/08/10 01:05:30;;;;;;;1046.33;862.07;;;;;;;14.95;89.63;101485.72;4976767;28;20675;-72
2021/08/10 01:08:11;;;;;;;1060.57;860.37;;;;;;;15.01;89.21;101476.78;4988383;28;20238;-72
2021/08/10 01:10:49;;;;;;;1064.47;903.60;;;;;;;14.90;89.25;101487.22;4973170;28;20840;-71
2021/08/10 01:13:37;;;;;;;1073.13;877.20;;;;;;;14.96;89.18;101487.41;4979886;28;20444;-72
2021/08/10 01:16:14;;;;;;;1034.90;848.63;;;;;;;14.72;89.82;101464.59;4977329;28;20434;-72
2021/08/10 01:19:00;;;;;;;1081.67;885.63;;;;;;;14.73;89.89;101461.69;4976492;28;20999;-72
2021/08/10 01:21:34;;;;;;;1152.53;949.77;;;;;;;14.84;89.99;101479.97;4975388;28;20514;-72
2021/08/10 01:24:26;;;;;;;1005.20;821.00;;;;;;;15.00;88.93;101484.06;4978283;28;20945;-72
2021/08/10 01:27:18;;;;;;;974.63;828.57;;;;;;;14.78;89.98;101480.81;4976305;28;20441;-71
2021/08/10 01:30:21;;;;;;;993.37;848.37;;;;;;;14.82;89.63;101487.44;4975324;28;20510;-72
2021/08/10 01:32:48;;;;;;;1012.33;830.73;;;;;;;14.83;89.56;101483.69;4980560;28;20429;-72
2021/08/10 01:35:17;;;;;;;1025.13;849.87;;;;;;;14.78;89.83;101478.09;4974207;28;20487;-72
2021/08/10 01:37:46;;;;;;;1052.53;847.47;;;;;;;14.82;89.33;101456.91;4976828;28;20499;-73
2021/08/10 01:40:13;;;;;;;1035.30;893.07;;;;;;;14.73;89.26;101450.06;4976862;28;20488;-72
2021/08/10 01:42:40;;;;;;;1061.13;871.43;;;;;;;14.88;89.66;101474.94;4973546;28;20901;-71
2021/08/10 01:45:07;;;;;;;1049.90;880.47;;;;;;;14.66;89.63;101444.66;4976026;28;20505;-72
2021/08/10 01:47:34;;;;;;;1048.90;847.93;;;;;;;14.67;89.53;101443.66;4974180;28;20447;-72
2021/08/10 01:50:02;;;;;;;1096.90;901.10;;;;;;;14.67;89.71;101435.53;4978407;28;20440;-72
2021/08/10 01:52:28;;;;;;;1033.90;846.57;;;;;;;14.84;89.79;101473.69;4975870;28;20448;-72
2021/08/10 01:54:54;;;;;;;1116.50;911.40;;;;;;;14.51;89.14;101401.69;4977984;28;20452;-73
2021/08/10 01:57:20;;;;;;;971.23;797.67;;;;;;;14.91;88.82;101451.03;4973028;28;20198;-72
2021/08/10 01:59:49;;;;;;;1012.97;836.17;;;;;;;14.92;89.91;101473.47;4974452;28;20465;-73
2021/08/10 02:02:15;;;;;;;1115.93;900.33;;;;;;;14.92;89.67;101468.91;4973011;28;20504;-72
2021/08/10 02:04:43;;;;;;;1061.93;874.73;;;;;;;14.78;89.76;101448.41;4974283;28;20498;-72
2021/08/10 02:07:10;;;;;;;1175.90;940.50;;;;;;;14.72;89.93;101418.69;4977385;28;20449;-72
2021/08/10 02:09:37;;;;;;;1049.90;856.87;;;;;;;15.00;90.01;101472.44;4976279;28;20471;-72
2021/08/10 02:12:04;;;;;;;1209.07;927.93;;;;;;;14.91;89.85;101434.00;4977705;28;20476;-72
2021/08/10 02:14:30;;;;;;;1251.67;953.80;;;;;;;15.13;89.94;101467.00;4974097;28;20948;-72
2021/08/10 02:17:00;;;;;;;1125.77;884.83;;;;;;;15.17;89.69;101464.69;4976231;28;20564;-72
2021/08/10 02:19:28;;;;;;;1259.87;931.00;;;;;;;15.04;90.38;101468.25;4981168;28;20457;-73
2021/08/10 02:22:08;;;;;;;1207.90;945.37;;;;;;;15.07;90.45;101460.56;4980049;28;20495;-73
2021/08/10 02:24:43;;;;;;;1193.13;945.03;;;;;;;14.33;90.27;101347.56;4982831;28;20955;-72
2021/08/10 02:27:13;;;;;;;1263.33;965.27;;;;;;;15.08;90.05;101458.69;4981696;28;20538;-72
2021/08/10 02:29:42;;;;;;;1158.10;856.50;;;;;;;15.13;89.85;101465.13;4980851;28;20457;-72
2021/08/10 02:32:10;;;;;;;1184.27;898.07;;;;;;;15.14;89.71;101461.34;4980229;28;20445;-72
2021/08/10 02:34:38;;;;;;;1248.77;929.10;;;;;;;15.21;89.81;101464.03;4979098;28;20445;-72
2021/08/10 02:37:06;;;;;;;1130.93;882.53;;;;;;;14.89;89.89;101423.41;4978551;28;20518;-72
2021/08/10 02:39:34;;;;;;;1172.63;885.50;;;;;;;15.07;90.08;101447.06;4977958;28;20477;-72
2021/08/10 02:42:01;;;;;;;1188.43;931.07;;;;;;;14.98;89.47;101420.47;4979068;28;20468;-72
2021/08/10 02:44:28;;;;;;;1189.57;882.63;;;;;;;15.25;89.43;101457.16;4982260;28;20456;-72
2021/08/10 02:46:53;;;;;;;1123.17;894.13;;;;;;;15.11;89.85;101434.75;4981624;28;20443;-73
2021/08/10 02:49:19;;;;;;;1216.50;959.97;;;;;;;14.89;89.47;101406.38;4979654;28;20461;-73
2021/08/10 02:51:44;;;;;;;1125.17;888.30;;;;;;;15.22;89.70;101445.97;4979984;28;20173;-73
2021/08/10 02:54:10;;;;;;;1150.93;902.60;;;;;;;15.26;89.54;101450.69;4982485;28;20205;-72
2021/08/10 02:56:53;;;;;;;1147.03;890.57;;;;;;;15.14;89.89;101455.13;4975531;28;20204;-73
2021/08/10 02:59:33;;;;;;;1121.30;894.13;;;;;;;14.71;90.17;101398.97;4983985;28;20691;-73
2021/08/10 03:02:21;;;;;;;1133.50;886.90;;;;;;;15.02;90.64;101444.16;4976235;28;20460;-72
2021/08/10 03:05:07;;;;;;;1179.97;900.23;;;;;;;14.99;90.84;101454.56;4976793;28;20447;-72
2021/08/10 03:07:33;;;;;;;1100.63;872.20;;;;;;;14.96;90.56;101441.50;4979369;28;20429;-72
2021/08/10 03:10:02;;;;;;;1180.60;913.67;;;;;;;15.07;90.42;101459.72;4972700;28;20938;-72
2021/08/10 03:12:31;;;;;;;1130.07;891.00;;;;;;;14.92;89.63;101428.38;4979705;28;20442;-72
2021/08/10 03:14:58;;;;;;;1259.17;963.23;;;;;;;15.12;90.14;101459.91;4977958;28;20445;-72
2021/08/10 03:17:29;;;;;;;1159.67;934.30;;;;;;;15.08;90.01;101469.50;4976473;28;20433;-72
2021/08/10 03:19:57;;;;;;;1254.03;950.57;;;;;;;14.94;90.32;101438.16;4979839;28;20445;-73
2021/08/10 03:22:25;;;;;;;1256.87;964.43;;;;;;;14.95;90.74;101470.34;4975833;28;20513;-73
2021/08/10 03:24:55;;;;;;;1230.27;931.87;;;;;;;14.88;90.14;101432.56;4980117;28;20858;-73
2021/08/10 03:27:22;;;;;;;1349.27;999.90;;;;;;;14.86;90.16;101428.41;4977985;28;20451;-73
2021/08/10 03:29:48;;;;;;;1215.60;919.37;;;;;;;15.02;90.44;101470.34;4977488;28;20469;-72
2021/08/10 03:32:14;;;;;;;1245.53;987.43;;;;;;;15.07;90.07;101470.50;4979371;28;20983;-73
2021/08/10 03:34:41;;;;;;;1182.77;914.83;;;;;;;14.96;90.51;101471.22;4975914;28;20192;-73
2021/08/10 03:37:09;;;;;;;1322.17;969.10;;;;;;;14.99;90.16;101457.28;4977980;28;20491;-73
2021/08/10 03:39:37;;;;;;;1130.33;896.23;;;;;;;14.64;90.17;101417.06;4977485;28;20460;-73
2021/08/10 03:42:03;;;;;;;1216.23;968.47;;;;;;;15.04;90.13;101473.66;4977114;28;20470;-73
2021/08/10 03:44:29;;;;;;;1231.40;957.43;;;;;;;14.93;90.14;101456.25;4980169;28;20448;-72
2021/08/10 03:46:54;;;;;;;1198.20;939.60;;;;;;;14.98;89.83;101464.53;4976653;28;20476;-72
2021/08/10 03:49:22;;;;;;;1221.83;933.97;;;;;;;15.10;89.78;101470.09;4979895;28;20237;-72
2021/08/10 03:51:48;;;;;;;1272.20;950.30;;;;;;;14.97;89.83;101467.44;4976703;28;20347;-72
2021/08/10 03:54:13;;;;;;;1287.90;996.67;;;;;;;14.96;90.09;101466.63;4977465;28;20957;-72
2021/08/10 03:56:39;;;;;;;1222.30;926.23;;;;;;;14.61;89.79;101412.91;4978063;28;20189;-73
2021/08/10 03:59:07;;;;;;;1224.47;928.47;;;;;;;14.71;89.84;101442.16;4974087;28;20217;-73
2021/08/10 04:01:34;;;;;;;1172.97;886.90;;;;;;;14.91;89.83;101461.84;4978999;28;20508;-73
2021/08/10 04:04:00;;;;;;;1152.33;887.00;;;;;;;14.95;89.56;101466.81;4976074;28;20933;-72
2021/08/10 04:06:27;;;;;;;1185.93;926.20;;;;;;;14.84;89.65;101454.78;4978777;28;20532;-72
2021/08/10 04:08:53;;;;;;;1180.73;940.73;;;;;;;14.63;89.28;101420.78;4978734;28;20201;-72
2021/08/10 04:11:19;;;;;;;1143.93;886.47;;;;;;;14.85;89.25;101457.28;4976420;28;20500;-72
2021/08/10 04:13:46;;;;;;;1165.00;926.03;;;;;;;14.99;88.92;101462.69;4979839;28;20763;-72
2021/08/10 04:16:14;;;;;;;1024.43;794.90;;;;;;;14.83;89.47;101443.16;4977745;28;20538;-72
2021/08/10 04:18:41;;;;;;;1028.13;816.67;;;;;;;14.44;89.74;101388.22;4980740;28;20816;-72
2021/08/10 04:21:06;;;;;;;1128.27;877.80;;;;;;;14.86;88.97;101417.59;4978903;28;20774;-72
2021/08/10 04:23:32;;;;;;;1024.53;844.93;;;;;;;14.70;88.84;101389.22;4977483;28;20455;-72
2021/08/10 04:25:57;;;;;;;1078.03;887.37;;;;;;;14.97;87.98;101419.66;4977685;28;22873;-72
2021/08/10 04:28:23;;;;;;;982.77;801.33;;;;;;;14.83;88.28;101391.84;4977770;28;20202;-72
2021/08/10 04:30:48;;;;;;;936.27;803.63;;;;;;;14.83;88.90;101429.66;4976975;28;20178;-72
2021/08/10 04:33:13;;;;;;;1015.33;841.37;;;;;;;14.90;89.08;101427.78;4979735;28;20622;-73
2021/08/10 04:35:39;;;;;;;948.47;818.00;;;;;;;14.67;88.58;101397.75;4978932;28;20766;-73
2021/08/10 04:38:05;;;;;;;1049.13;858.83;;;;;;;14.57;88.83;101400.88;4975318;28;20197;-72
2021/08/10 04:40:31;;;;;;;1010.07;837.30;;;;;;;14.71;89.13;101425.16;4972566;28;20197;-73
2021/08/10 04:42:57;;;;;;;1019.57;869.30;;;;;;;14.79;89.22;101449.22;4977354;28;20730;-73
2021/08/10 04:45:24;;;;;;;1062.80;856.73;;;;;;;14.87;89.04;101454.41;4973383;28;20433;-73
2021/08/10 04:47:49;;;;;;;1029.60;855.80;;;;;;;14.21;88.50;101323.91;4977420;28;20488;-73
2021/08/10 04:50:17;;;;;;;1022.03;802.77;;;;;;;14.63;88.90;101396.50;4979705;28;20441;-73
2021/08/10 04:52:43;;;;;;;1050.33;836.20;;;;;;;14.60;88.67;101386.13;4979716;28;20186;-73
2021/08/10 04:55:08;;;;;;;1123.90;915.93;;;;;;;14.88;89.30;101450.66;4978074;28;20447;-73
2021/08/10 04:57:34;;;;;;;1034.40;827.13;;;;;;;14.41;88.86;101383.25;4977612;28;20198;-74
2021/08/10 05:00:00;;;;;;;1055.30;890.47;;;;;;;14.91;88.82;101459.16;4973908;28;20194;-73
2021/08/10 05:02:26;;;;;;;1122.53;918.00;;;;;;;14.74;89.06;101451.72;4974944;28;20206;-73
2021/08/10 05:04:51;;;;;;;1228.93;963.73;;;;;;;14.31;89.61;101371.22;4974169;28;20957;-73
2021/08/10 05:07:17;;;;;;;1174.63;883.17;;;;;;;14.49;89.03;101384.84;4977715;28;20177;-73
2021/08/10 05:09:43;;;;;;;1262.07;975.90;;;;;;;14.90;89.38;101456.69;4974428;28;20213;-73
2021/08/10 05:12:08;;;;;;;1186.07;897.43;;;;;;;14.83;89.52;101443.16;4972881;28;20178;-73
2021/08/10 05:14:34;;;;;;;1258.13;934.03;;;;;;;14.79;89.42;101424.91;4972466;28;20433;-73
2021/08/10 05:17:00;;;;;;;1226.27;931.13;;;;;;;14.33;89.28;101347.56;4974549;28;20186;-73
2021/08/10 05:19:25;;;;;;;1249.63;923.37;;;;;;;14.83;89.80;101445.88;4980269;28;20217;-73
2021/08/10 05:21:51;;;;;;;1285.00;928.67;;;;;;;14.88;90.08;101456.03;4974910;28;20245;-73
2021/08/10 05:24:16;;;;;;;1407.47;999.90;;;;;;;14.62;89.60;101422.66;4978389;28;20193;-73
2021/08/10 05:26:41;;;;;;;1361.10;986.57;;;;;;;14.86;90.07;101460.81;4977264;28;20190;-73
2021/08/10 05:29:07;;;;;;;1407.50;999.90;;;;;;;14.73;89.35;101398.75;4973324;28;20611;-73
2021/08/10 05:31:32;;;;;;;1395.53;992.00;;;;;;;15.08;89.17;101458.69;4979796;28;20181;-73
2021/08/10 05:33:58;;;;;;;1336.70;946.50;;;;;;;15.06;88.81;101439.16;4980776;28;20216;-73
2021/08/10 05:36:23;;;;;;;1299.50;951.73;;;;;;;15.15;88.66;101435.97;4980567;28;20183;-73
2021/08/10 05:38:54;;;;;;;1295.00;941.00;;;;;;;14.91;88.49;101390.78;4975960;28;20221;-73
2021/08/10 05:41:20;;;;;;;1243.90;897.60;;;;;;;14.98;88.05;101382.66;4980416;28;20202;-73
2021/08/10 05:43:46;;;;;;;1224.17;893.17;;;;;;;15.10;88.80;101419.59;4981903;28;20444;-73
2021/08/10 05:46:11;;;;;;;1166.40;869.97;;;;;;;15.08;88.16;101415.47;4978808;28;20475;-73
2021/08/10 05:48:37;;;;;;;1088.70;853.77;;;;;;;15.09;88.64;101434.13;4981505;28;20290;-72
2021/08/10 05:51:04;;;;;;;1071.37;843.07;;;;;;;15.39;87.95;101447.13;4979102;28;20181;-73
2021/08/10 05:53:31;;;;;;;1152.40;865.57;;;;;;;15.44;87.67;101441.88;4979600;28;20228;-72
2021/08/10 05:55:56;;;;;;;1099.27;878.87;;;;;;;15.55;87.21;101448.47;4986063;28;20443;-73
2021/08/10 05:58:22;;;;;;;1094.17;847.07;;;;;;;15.30;86.51;101388.94;4985740;28;20465;-72
2021/08/10 06:00:47;;;;;;;1064.07;886.33;;;;;;;15.29;86.39;101390.00;4981795;28;20197;-73
2021/08/10 06:03:12;;;;;;;975.50;832.07;;;;;;;15.27;86.91;101394.78;4979394;28;20211;-73
2021/08/10 06:05:38;;;;;;;1076.07;871.13;;;;;;;15.52;86.58;101419.19;4980227;28;20202;-73
2021/08/10 06:08:03;;;;;;;1028.50;853.73;;;;;;;15.46;86.66;101428.16;4981910;28;20201;-72
2021/08/10 06:10:29;;;;;;;990.30;822.30;;;;;;;15.60;87.06;101448.66;4981704;28;20245;-73
2021/08/10 06:12:54;;;;;;;1060.47;870.03;;;;;;;15.60;86.99;101460.31;4982617;28;20240;-73
2021/08/10 06:15:19;;;;;;;1053.70;844.67;;;;;;;15.02;86.70;101341.50;4980651;28;20275;-72
2021/08/10 06:17:45;;;;;;;1073.70;924.83;;;;;;;14.94;86.42;101371.47;4980277;28;20210;-73
2021/08/10 06:20:11;;;;;;;1061.10;837.10;;;;;;;15.04;86.88;101376.38;4981193;28;20197;-72
2021/08/10 06:22:36;;;;;;;990.13;804.93;;;;;;;15.55;87.50;101468.22;4985439;28;20205;-72
2021/08/10 06:25:02;;;;;;;1053.30;853.97;;;;;;;15.68;87.27;101470.09;4979900;28;20602;-72
2021/08/10 06:27:27;;;;;;;1092.47;869.03;;;;;;;15.43;86.59;101434.81;4982591;28;20190;-72
2021/08/10 06:29:53;;;;;;;1044.73;865.00;;;;;;;15.29;86.78;101434.06;4979294;28;20473;-72
2021/08/10 06:32:18;;;;;;;1071.07;875.37;;;;;;;15.77;86.54;101481.47;4981708;28;20235;-72
2021/08/10 06:34:43;;;;;;;1072.33;876.30;;;;;;;15.64;86.34;101503.97;4979828;28;20182;-73
2021/08/10 06:37:09;;;;;;;1053.03;853.67;;;;;;;15.58;87.13;101484.03;4978893;28;20201;-72
2021/08/10 06:39:34;;;;;;;1143.33;876.90;;;;;;;15.71;87.01;101496.69;4981844;28;20214;-73
2021/08/10 06:42:00;;;;;;;982.43;808.33;;;;;;;15.62;87.37;101491.69;4979493;28;20197;-72
2021/08/10 06:44:25;;;;;;;1089.07;846.80;;;;;;;15.65;86.46;101475.91;4983643;28;20681;-73
2021/08/10 06:46:50;;;;;;;1064.70;826.17;;;;;;;15.65;86.95;101480.44;4980978;28;20194;-73
2021/08/10 06:49:16;;;;;;;1022.53;804.30;;;;;;;15.59;86.84;101469.47;4981376;28;20209;-73
2021/08/10 06:51:41;;;;;;;1035.53;832.10;;;;;;;15.76;86.50;101482.50;4983112;28;20287;-73
2021/08/10 06:54:07;;;;;;;1055.00;817.87;;;;;;;15.68;86.64;101491.72;4985756;28;20190;-73
2021/08/10 06:56:32;;;;;;;1094.93;882.37;;;;;;;15.61;87.28;101482.75;4974795;28;20194;-73
2021/08/10 06:58:57;;;;;;;1081.27;851.97;;;;;;;15.67;86.20;101470.25;4982878;28;20202;-73
2021/08/10 07:01:23;;;;;;;1085.30;846.57;;;;;;;15.61;86.93;101507.09;4978996;28;20206;-72
2021/08/10 07:03:48;;;;;;;1155.57;899.70;;;;;;;15.59;85.59;101514.59;4976434;28;20186;-73
2021/08/10 07:06:14;;;;;;;1104.73;850.33;;;;;;;15.68;85.50;101512.50;4977948;28;20194;-73
2021/08/10 07:08:39;;;;;;;1110.67;858.53;;;;;;;15.66;85.56;101509.16;4975931;28;20209;-73
2021/08/10 07:11:05;;;;;;;1204.60;956.13;;;;;;;15.53;85.74;101508.16;4977560;28;20225;-73
2021/08/10 07:13:30;;;;;;;1056.27;818.33;;;;;;;15.34;85.01;101450.47;4979105;28;20555;-73
2021/08/10 07:15:55;;;;;;;1001.30;791.20;;;;;;;15.68;85.71;101482.75;4982429;28;20220;-72
2021/08/10 07:18:21;;;;;;;1085.73;864.97;;;;;;;15.47;85.88;101446.84;4976779;28;20217;-73
2021/08/10 07:20:46;;;;;;;1021.53;819.10;;;;;;;15.88;85.74;101505.13;4978802;28;20269;-73
2021/08/10 07:23:11;;;;;;;1035.93;844.37;;;;;;;16.00;85.43;101508.78;4981076;28;20205;-73
2021/08/10 07:25:37;;;;;;;1063.17;839.97;;;;;;;15.41;85.91;101425.25;4978206;28;20233;-73
2021/08/10 07:28:02;;;;;;;1097.20;843.00;;;;;;;15.92;85.46;101514.44;4982937;28;20666;-73
2021/08/10 07:30:28;;;;;;;1074.17;850.80;;;;;;;15.65;85.62;101459.66;4976199;28;20202;-73
2021/08/10 07:32:53;;;;;;;1000.90;827.77;;;;;;;15.96;85.66;101521.06;4978685;28;20189;-72
2021/08/10 07:35:18;;;;;;;1108.03;910.27;;;;;;;15.83;86.02;101510.34;4980195;28;20188;-72
2021/08/10 07:37:44;;;;;;;1020.33;874.80;;;;;;;15.45;86.25;101462.47;4981621;28;20225;-72
2021/08/10 07:40:11;;;;;;;1094.03;898.57;;;;;;;15.76;85.99;101523.88;4980127;28;20265;-73
2021/08/10 07:42:36;;;;;;;1033.77;861.00;;;;;;;15.83;86.28;101510.34;4976406;28;20309;-72
2021/08/10 07:45:03;;;;;;;1136.80;900.83;;;;;;;15.66;85.37;101474.84;4981997;28;20552;-73
2021/08/10 07:47:29;;;;;;;1018.80;871.37;;;;;;;16.08;85.50;101513.09;4981234;28;20191;-73
2021/08/10 07:49:54;;;;;;;1044.83;890.63;;;;;;;16.15;84.95;101526.59;4984001;28;20479;-73
2021/08/10 07:52:19;;;;;;;1030.90;860.83;;;;;;;16.12;84.45;101545.97;4982152;28;20650;-74
2021/08/10 07:54:45;;;;;;;985.13;835.50;;;;;;;16.23;83.50;101531.75;4982331;28;20674;-73
2021/08/10 07:57:10;;;;;;;1113.17;872.50;;;;;;;16.20;83.61;101519.47;4979156;28;20568;-73
2021/08/10 07:59:35;;;;;;;1060.47;889.70;;;;;;;16.41;83.16;101534.50;4978367;28;20568;-73
2021/08/10 08:02:01;;;;;;;1070.43;828.90;;;;;;;16.41;83.79;101533.69;4977925;28;20210;-73
2021/08/10 08:04:26;;;;;;;1070.37;848.00;;;;;;;16.58;82.62;101531.25;4986294;28;20238;-72
2021/08/10 08:06:52;;;;;;;1128.77;888.40;;;;;;;16.60;83.43;101521.00;4977869;28;20194;-73
2021/08/10 08:09:17;;;;;;;1068.97;888.77;;;;;;;16.82;82.29;101519.59;4978112;28;20217;-73
2021/08/10 08:11:43;;;;;;;1096.20;872.90;;;;;;;16.87;81.85;101525.16;4980636;28;20197;-73
2021/08/10 08:14:08;;;;;;;1135.20;907.37;;;;;;;16.97;81.48;101518.41;4979983;28;20217;-74
2021/08/10 08:16:34;;;;;;;1166.80;925.97;;;;;;;16.80;81.11;101467.50;4979490;28;20213;-73
2021/08/10 08:18:59;;;;;;;1174.00;888.97;;;;;;;17.22;81.07;101513.75;4977335;28;20709;-73
2021/08/10 08:21:25;;;;;;;1257.40;907.00;;;;;;;17.03;80.26;101509.38;4974190;28;20210;-75
2021/08/10 08:23:51;;;;;;;1158.67;882.47;;;;;;;16.94;80.98;101516.97;4979151;28;20199;-73
2021/08/10 08:26:21;;;;;;;1162.97;861.87;;;;;;;16.89;80.92;101492.41;4984499;28;20181;-73
2021/08/10 08:28:47;;;;;;;1172.90;895.80;;;;;;;17.15;80.38;101510.25;4981526;28;20458;-73
2021/08/10 08:31:12;;;;;;;1199.47;898.73;;;;;;;17.10;79.65;101486.56;4978596;28;20463;-73
2021/08/10 08:33:37;;;;;;;1107.60;875.63;;;;;;;16.77;79.45;101448.97;4977201;28;20220;-74
2021/08/10 08:36:03;;;;;;;1043.00;846.90;;;;;;;16.99;79.02;101516.28;4977506;28;20221;-74
2021/08/10 08:38:29;;;;;;;993.50;831.93;;;;;;;16.85;78.68;101494.75;4977150;28;20212;-73
2021/08/10 08:40:54;;;;;;;1079.97;874.73;;;;;;;17.00;78.86;101517.94;4975456;28;20523;-74
2021/08/10 08:43:22;;;;;;;1053.87;829.53;;;;;;;16.62;78.14;101451.22;4982417;28;20213;-73
2021/08/10 08:45:48;;;;;;;1056.70;870.37;;;;;;;16.97;77.88;101485.88;4981940;28;20277;-74
2021/08/10 08:48:14;;;;;;;970.27;815.60;;;;;;;17.04;76.59;101516.44;4980009;28;20869;-75
2021/08/10 08:50:45;;;;;;;1034.33;839.63;;;;;;;17.17;76.73;101517.13;4977786;28;20193;-76
2021/08/10 08:53:12;;;;;;;1364.13;956.20;;;;;;;17.29;76.84;101516.38;4975282;28;20460;-75
2021/08/10 08:55:41;;;;;;;1352.97;994.23;;;;;;;17.45;77.18;101517.66;4978691;28;20449;-73
2021/08/10 08:58:07;;;;;;;1501.07;999.90;;;;;;;17.20;75.09;101512.31;4977319;28;20463;-73
2021/08/10 09:00:32;;;;;;;1680.50;999.90;;;;;;;17.11;76.85;101512.59;4976083;28;20450;-73
2021/08/10 09:02:58;;;;;;;1662.80;999.90;;;;;;;17.00;77.80;101510.63;4980849;28;20216;-73
2021/08/10 09:05:24;;;;;;;1375.67;994.37;;;;;;;17.00;78.52;101513.34;4979915;28;20205;-72
2021/08/10 09:07:55;;;;;;;1259.60;942.20;;;;;;;17.01;77.96;101481.66;4974266;28;20902;-72
2021/08/10 09:10:29;;;;;;;1287.57;936.83;;;;;;;17.29;77.09;101510.94;4976560;28;20186;-73
2021/08/10 09:12:56;;;;;;;1330.70;966.17;;;;;;;17.24;76.24;101489.94;4978869;28;20456;-73
2021/08/10 09:15:44;;;;;;;1457.97;983.90;;;;;;;16.99;74.59;101486.50;4975362;28;20445;-75
2021/08/10 09:18:20;;;;;;;1467.47;958.63;;;;;;;17.20;75.50;101488.72;4986471;28;20475;-75
2021/08/10 09:21:08;;;;;;;1455.83;997.80;;;;;;;17.51;75.84;101505.88;4978046;28;20519;-73
2021/08/10 09:23:36;;;;;;;1472.90;992.70;;;;;;;17.53;75.75;101501.88;4974089;28;20481;-72
2021/08/10 09:26:02;;;;;;;1486.10;976.10;;;;;;;17.50;75.13;101466.22;4969218;28;20445;-72
2021/08/10 09:28:32;;;;;;;1598.33;999.90;;;;;;;17.75;74.34;101498.66;4977555;28;20892;-72
2021/08/10 09:31:39;;;;;;;1541.70;999.23;;;;;;;17.96;74.35;101492.72;4968797;28;20256;-73
2021/08/10 09:34:16;;;;;;;1657.93;999.90;;;;;;;17.81;73.99;101498.59;4977619;28;20429;-73
2021/08/10 09:36:42;;;;;;;1567.03;995.27;;;;;;;17.78;72.98;101477.34;4973214;28;20451;-74
2021/08/10 09:39:08;;;;;;;1649.00;999.90;;;;;;;17.67;72.72;101471.84;4974635;28;20461;-73
2021/08/10 09:41:34;;;;;;;1580.03;997.53;;;;;;;17.44;72.81;101434.63;4992077;28;20965;-74
2021/08/10 09:44:25;;;;;;;1682.17;999.90;;;;;;;17.98;73.31;101495.22;4974469;28;20194;-74
2021/08/10 09:46:53;;;;;;;1744.17;999.90;;;;;;;18.09;73.00;101469.19;4976165;28;20217;-73
2021/08/10 09:49:19;;;;;;;1812.23;999.90;;;;;;;18.07;71.60;101494.66;4979836;28;20465;-76
2021/08/10 09:51:51;;;;;;;1843.77;999.90;;;;;;;18.28;71.52;101500.59;4978526;28;20441;-72
2021/08/10 09:54:18;;;;;;;1624.83;996.67;;;;;;;18.19;71.33;101489.25;4977070;28;20475;-72
2021/08/10 09:56:52;;;;;;;1852.63;999.90;;;;;;;18.35;71.76;101495.88;4974378;28;20452;-74
2021/08/10 09:59:27;;;;;;;1663.33;999.90;;;;;;;18.33;72.95;101489.03;4975662;28;21164;-74
2021/08/10 10:01:59;;;;;;;1831.20;999.90;;;;;;;17.88;71.86;101481.38;4976879;28;20891;-74
2021/08/10 10:04:29;;;;;;;1972.73;999.90;;;;;;;17.63;71.99;101444.38;4982134;28;20519;-72
2021/08/10 10:06:57;;;;;;;1654.33;980.10;;;;;;;18.12;70.87;101493.13;4978422;28;20491;-73
2021/08/10 10:09:25;;;;;;;1556.97;957.23;;;;;;;18.38;71.70;101491.88;4977418;28;20460;-72
2021/08/10 10:11:53;;;;;;;1810.43;999.90;;;;;;;18.24;71.77;101492.09;4982665;28;20463;-72
2021/08/10 10:14:21;;;;;;;1690.83;995.20;;;;;;;18.33;72.54;101483.59;4981856;28;20456;-73
2021/08/10 10:16:49;;;;;;;1716.70;999.90;;;;;;;18.47;70.65;101455.16;4976548;28;20445;-72
2021/08/10 10:19:16;;;;;;;2105.93;999.90;;;;;;;17.91;71.16;101407.66;4979776;28;20548;-72
2021/08/10 10:21:48;;;;;;;2113.40;999.90;;;;;;;18.22;72.81;101499.63;4981544;28;20576;-72
2021/08/10 10:24:16;;;;;;;1778.73;998.07;;;;;;;18.11;71.81;101467.88;4977902;28;20456;-72
2021/08/10 10:26:45;;;;;;;1818.90;999.90;;;;;;;18.24;72.99;101499.41;4980620;28;20528;-71
2021/08/10 10:29:13;;;;;;;1751.53;999.90;;;;;;;18.22;72.91;101498.81;4982382;28;20500;-71
2021/08/10 10:31:39;;;;;;;1856.20;999.90;;;;;;;18.11;72.29;101477.88;4981276;28;20433;-73
2021/08/10 10:34:05;;;;;;;1778.47;999.90;;;;;;;18.26;72.76;101498.13;4978792;28;20442;-72
2021/08/10 10:36:32;;;;;;;1830.53;999.90;;;;;;;18.37;72.89;101491.06;4974649;28;20535;-71
2021/08/10 10:38:59;;;;;;;1853.83;999.90;;;;;;;18.45;73.09;101479.00;4981815;28;20464;-71
2021/08/10 10:41:29;;;;;;;1848.33;999.90;;;;;;;18.56;71.63;101469.22;4984747;28;20449;-72
2021/08/10 10:43:55;;;;;;;1733.37;994.50;;;;;;;18.84;70.97;101479.38;4986308;28;20449;-72
2021/08/10 10:46:40;;;;;;;1890.13;999.90;;;;;;;18.88;70.75;101478.66;4987053;28;20940;-73
2021/08/10 10:49:07;;;;;;;1626.43;936.23;;;;;;;19.11;69.51;101485.94;4983242;28;20468;-72
2021/08/10 10:51:34;;;;;;;1741.13;999.90;;;;;;;19.20;68.68;101480.94;4983093;28;20941;-71